1994 IVY (1994037S12095)


On this page: IBTrACS data - Map and Plots - Positions - Intensities - Original source data

Summary

Start Feb 6
End Feb 21
Basin SI
LMI 100 kt
Sources jtwc_sh
reunion
neumann
In WMO? Yes
Previous storm 1994 HOLLANDA (SI)
Previous in basin 1994 HOLLANDA (SI)
Concurrent storms 1994 GERALDA (SI)
1994 HOLLANDA (SI)
1994 IVY (SI)
1994 HSK1894 (SI)
1994 JULITA (SI)
Next in basin 1994 HSK1894 (SI)
Next storm 1994 HSK1894 (SI)

top of page IBTrACS Data: File Access

top of page HURSAT Data: File Access

Image of storm

top of page Plots:

Map of storm track will not appear if FTP is down
Time series of cyclone Maximum Sustained Wind will not appear if FTP is down
Time series of cyclone Minimum Central Pressure will not appear if FTP is down

top of page Track Data:Position

jtwc_sh reunion neumann
Date Lat Lon Lat Lon Lat Lon
1994-02-06 00:00:00 -12.1 95.1 -12.1 95.1
1994-02-06 06:00:00 -12.3 94.5 -12.3 94.5
1994-02-06 12:00:00 -12.4 93.8 -12.4 93.8
1994-02-06 18:00:00 -12.6 93.0 -12.6 93.0
1994-02-07 00:00:00 -12.8 92.0 -12.8 92.0
1994-02-07 06:00:00 -13.0 91.0 -13.0 91.0
1994-02-07 12:00:00 -13.1 90.0 -13.1 90.0
1994-02-07 18:00:00 -13.2 89.1 -13.2 89.1
1994-02-08 00:00:00 -13.3 88.2 -13.3 88.2
1994-02-08 06:00:00 -13.4 87.4 -13.4 87.4
1994-02-08 12:00:00 -13.5 86.2 -13.0 86.3 -13.5 86.2
1994-02-08 18:00:00 -13.5 84.9 -12.7 85.0 -13.5 84.9
1994-02-09 00:00:00 -13.5 83.7 -12.5 83.7 -13.5 83.7
1994-02-09 06:00:00 -13.4 82.6 -12.4 82.8 -13.4 82.6
1994-02-09 12:00:00 -13.3 81.5 -12.2 82.0 -13.3 81.5
1994-02-09 18:00:00 -13.1 80.3 -12.1 80.9 -13.1 80.3
1994-02-10 00:00:00 -12.8 79.2 -12.1 80.3 -12.8 79.2
1994-02-10 06:00:00 -12.5 78.4 -12.0 79.5 -12.5 78.4
1994-02-10 12:00:00 -12.2 77.8 -12.0 78.7 -12.2 77.8
1994-02-10 18:00:00 -11.8 77.2 -12.0 77.8 -11.8 77.2
1994-02-11 00:00:00 -11.5 76.8 -11.9 77.0 -11.5 76.8
1994-02-11 06:00:00 -11.1 76.7 -11.9 76.2 -11.1 76.7
1994-02-11 12:00:00 -11.1 76.1 -12.0 75.6 -11.1 76.1
1994-02-11 18:00:00 -11.5 75.1 -12.1 74.5 -11.5 75.1
1994-02-12 00:00:00 -12.3 73.8 -12.5 73.9 -12.3 73.8
jtwc_sh reunion neumann
1994-02-12 06:00:00 -13.1 72.7 -13.2 73.0 -13.1 72.7
1994-02-12 12:00:00 -13.9 71.6 -14.2 71.8 -13.9 71.6
1994-02-12 18:00:00 -14.6 70.3 -14.8 70.9 -14.6 70.3
1994-02-13 00:00:00 -15.4 69.1 -15.6 69.8 -15.4 69.1
1994-02-13 06:00:00 -16.0 67.8 -16.3 68.7 -16.0 67.8
1994-02-13 12:00:00 -16.4 66.7 -16.9 67.8 -16.4 66.7
1994-02-13 18:00:00 -16.8 65.8 -17.3 66.8 -16.8 65.8
1994-02-14 00:00:00 -17.3 65.4 -17.4 65.9 -17.3 65.4
1994-02-14 06:00:00 -17.7 64.9 -17.6 64.8 -17.7 64.9
1994-02-14 12:00:00 -18.0 64.0 -18.0 63.8 -18.0 64.0
1994-02-14 18:00:00 -18.4 63.3 -18.3 63.5 -18.4 63.3
1994-02-15 00:00:00 -18.8 62.8 -18.7 63.2 -18.8 62.8
1994-02-15 06:00:00 -19.4 62.5 -19.1 62.9 -19.4 62.5
1994-02-15 12:00:00 -19.8 62.3 -19.5 62.7 -19.8 62.3
1994-02-15 18:00:00 -20.2 62.3 -19.9 62.6 -20.2 62.3
1994-02-16 00:00:00 -20.7 62.4 -20.3 62.7 -20.7 62.4
1994-02-16 06:00:00 -21.3 62.5 -21.1 62.8 -21.3 62.5
1994-02-16 12:00:00 -21.9 62.7 -22.0 62.9 -21.9 62.7
1994-02-16 18:00:00 -22.6 62.7 -22.8 62.7 -22.6 62.7
1994-02-17 00:00:00 -23.3 62.6 -23.4 62.5 -23.3 62.6
1994-02-17 06:00:00 -23.8 62.4 -23.8 62.4 -23.8 62.4
1994-02-17 12:00:00 -24.1 62.2 -24.3 62.4 -24.1 62.2
1994-02-17 18:00:00 -24.3 62.0 -24.4 62.3 -24.3 62.0
1994-02-18 00:00:00 -24.5 61.9 -24.5 62.2 -24.5 61.9
jtwc_sh reunion neumann
1994-02-18 06:00:00 -24.7 61.8 -24.6 62.0 -24.7 61.8
1994-02-18 12:00:00 -24.9 61.7 -24.7 61.9 -24.9 61.7
1994-02-18 18:00:00 -25.2 61.5 -24.8 61.8 -25.2 61.5
1994-02-19 00:00:00 -25.6 61.2 -25.1 61.6 -25.6 61.2
1994-02-19 06:00:00 -26.1 60.9 -25.7 61.2 -26.1 60.9
1994-02-19 12:00:00 -26.6 60.5 -26.7 60.7 -26.6 60.5
1994-02-19 18:00:00 -27.1 60.1 -27.7 60.0 -27.1 60.1
1994-02-20 00:00:00 -28.8 59.3
1994-02-20 06:00:00 -29.9 58.9
1994-02-20 12:00:00 -31.0 58.9
1994-02-20 18:00:00 -31.9 58.7
1994-02-21 00:00:00 -32.9 58.4

top of pageTrack Data:Intensity

jtwc_sh reunion neumann
Date Wind Pres Wind Pres Wind Pres
1994-02-06 00:00:00 20. 20.
1994-02-06 06:00:00 20. 20.
1994-02-06 12:00:00 20. 20.
1994-02-06 18:00:00 20. 20.
1994-02-07 00:00:00 25. 25.
1994-02-07 06:00:00 25. 25.
1994-02-07 12:00:00 25. 25.
1994-02-07 18:00:00 25. 25.
1994-02-08 00:00:00 25. 25.
1994-02-08 06:00:00 25. 25.
1994-02-08 12:00:00 25. 25. 1000. 25.
1994-02-08 18:00:00 25. 25. 1000. 25.
1994-02-09 00:00:00 25. 28. 998. 25.
1994-02-09 06:00:00 25. 28. 998. 25.
1994-02-09 12:00:00 30. 30. 996. 30.
1994-02-09 18:00:00 30. 30. 996. 30.
1994-02-10 00:00:00 35. 30. 996. 35.
1994-02-10 06:00:00 35. 35. 992. 35.
1994-02-10 12:00:00 35. 35. 992. 35.
1994-02-10 18:00:00 40. 35. 992. 40.
1994-02-11 00:00:00 40. 35. 992. 40.
1994-02-11 06:00:00 40. 35. 992. 40.
1994-02-11 12:00:00 40. 35. 990. 40.
1994-02-11 18:00:00 45. 35. 990. 45.
1994-02-12 00:00:00 50. 40. 988. 50.
jtwc_sh reunion neumann
1994-02-12 06:00:00 55. 40. 988. 55.
1994-02-12 12:00:00 60. 40. 988. 60.
1994-02-12 18:00:00 65. 40. 988. 65.
1994-02-13 00:00:00 65. 35. 990. 65.
1994-02-13 06:00:00 65. 35. 990. 65.
1994-02-13 12:00:00 60. 35. 992. 60.
1994-02-13 18:00:00 55. 35. 990. 55.
1994-02-14 00:00:00 55. 40. 988. 55.
1994-02-14 06:00:00 50. 45. 985. 50.
1994-02-14 12:00:00 50. 45. 985. 50.
1994-02-14 18:00:00 50. 45. 985. 50.
1994-02-15 00:00:00 45. 50. 980. 45.
1994-02-15 06:00:00 45. 50. 980. 45.
1994-02-15 12:00:00 50. 55. 975. 50.
1994-02-15 18:00:00 55. 60. 970. 55.
1994-02-16 00:00:00 60. 65. 965. 60.
1994-02-16 06:00:00 70. 70. 955. 70.
1994-02-16 12:00:00 75. 70. 955. 75.
1994-02-16 18:00:00 80. 75. 950. 80.
1994-02-17 00:00:00 90. 75. 950. 90.
1994-02-17 06:00:00 100. 75. 950. 100.
1994-02-17 12:00:00 90. 70. 955. 90.
1994-02-17 18:00:00 80. 70. 955. 80.
1994-02-18 00:00:00 75. 65. 965. 75.
jtwc_sh reunion neumann
1994-02-18 06:00:00 70. 60. 970. 70.
1994-02-18 12:00:00 65. 55. 975. 65.
1994-02-18 18:00:00 60. 50. 980. 60.
1994-02-19 00:00:00 55. 45. 985. 55.
1994-02-19 06:00:00 50. 45. 985. 50.
1994-02-19 12:00:00 40. 35. 992. 40.
1994-02-19 18:00:00 35. 30. 995. 35.
1994-02-20 00:00:00 30. 995.
1994-02-20 06:00:00 28. 998.
1994-02-20 12:00:00 28. 998.
1994-02-20 18:00:00
1994-02-21 00:00:00

top of page Links to source data

Source Source file Format
jtwc_sh bsh161994.txt ATCF
reunion WMO-Best-Tracks.txt:Line=16429:ivy WMO (old format)
neumann tracks.sh:Storm=998:IVY:BSH161994:JTWC HURDAT